sensor_id;sensor_type;location;lat;lon;timestamp;temperature;humidity
69503;SHT31;56704;54.242;12.442;2022-10-15T00:02:24;12.69;89.36
69503;SHT31;56704;54.242;12.442;2022-10-15T00:04:50;12.66;89.45
69503;SHT31;56704;54.242;12.442;2022-10-15T00:07:17;12.67;89.42
69503;SHT31;56704;54.242;12.442;2022-10-15T00:09:43;12.70;89.25
69503;SHT31;56704;54.242;12.442;2022-10-15T00:12:10;12.70;89.34
69503;SHT31;56704;54.242;12.442;2022-10-15T00:14:36;12.70;89.33
69503;SHT31;56704;54.242;12.442;2022-10-15T00:17:04;12.70;89.24
69503;SHT31;56704;54.242;12.442;2022-10-15T00:19:31;12.72;89.32
69503;SHT31;56704;54.242;12.442;2022-10-15T00:21:57;12.75;89.28
69503;SHT31;56704;54.242;12.442;2022-10-15T00:24:24;12.75;89.23
69503;SHT31;56704;54.242;12.442;2022-10-15T00:26:51;12.73;89.23
69503;SHT31;56704;54.242;12.442;2022-10-15T00:29:17;12.75;89.18
69503;SHT31;56704;54.242;12.442;2022-10-15T00:31:44;12.73;89.16
69503;SHT31;56704;54.242;12.442;2022-10-15T00:34:11;12.77;89.10
69503;SHT31;56704;54.242;12.442;2022-10-15T00:36:38;12.76;89.05
69503;SHT31;56704;54.242;12.442;2022-10-15T00:39:05;12.76;89.08
69503;SHT31;56704;54.242;12.442;2022-10-15T00:41:35;12.77;89.13
69503;SHT31;56704;54.242;12.442;2022-10-15T00:47:12;12.76;88.99
69503;SHT31;56704;54.242;12.442;2022-10-15T00:49:42;12.77;88.85
69503;SHT31;56704;54.242;12.442;2022-10-15T00:52:11;12.77;88.93
69503;SHT31;56704;54.242;12.442;2022-10-15T00:54:46;12.76;88.93
69503;SHT31;56704;54.242;12.442;2022-10-15T00:57:13;12.79;88.79
69503;SHT31;56704;54.242;12.442;2022-10-15T00:59:43;12.76;88.88
69503;SHT31;56704;54.242;12.442;2022-10-15T01:02:12;12.79;88.85
69503;SHT31;56704;54.242;12.442;2022-10-15T01:04:40;12.81;88.78
69503;SHT31;56704;54.242;12.442;2022-10-15T01:07:07;12.81;88.76
69503;SHT31;56704;54.242;12.442;2022-10-15T01:09:34;12.80;88.78
69503;SHT31;56704;54.242;12.442;2022-10-15T01:12:01;12.81;88.72
69503;SHT31;56704;54.242;12.442;2022-10-15T01:14:37;12.77;88.83
69503;SHT31;56704;54.242;12.442;2022-10-15T01:17:15;12.80;88.79
69503;SHT31;56704;54.242;12.442;2022-10-15T01:20:03;12.81;88.67
69503;SHT31;56704;54.242;12.442;2022-10-15T01:22:45;12.83;88.62
69503;SHT31;56704;54.242;12.442;2022-10-15T01:25:28;12.83;88.60
69503;SHT31;56704;54.242;12.442;2022-10-15T01:28:03;12.86;88.54
69503;SHT31;56704;54.242;12.442;2022-10-15T01:30:39;12.86;88.60
69503;SHT31;56704;54.242;12.442;2022-10-15T01:33:21;12.81;88.68
69503;SHT31;56704;54.242;12.442;2022-10-15T01:35:52;12.80;88.76
69503;SHT31;56704;54.242;12.442;2022-10-15T01:38:33;12.77;88.88
69503;SHT31;56704;54.242;12.442;2022-10-15T01:41:08;12.75;88.91
69503;SHT31;56704;54.242;12.442;2022-10-15T01:43:38;12.73;89.12
69503;SHT31;56704;54.242;12.442;2022-10-15T01:46:11;12.69;89.21
69503;SHT31;56704;54.242;12.442;2022-10-15T01:48:40;12.64;89.42
69503;SHT31;56704;54.242;12.442;2022-10-15T01:51:09;12.64;89.56
69503;SHT31;56704;54.242;12.442;2022-10-15T01:53:36;12.59;89.61
69503;SHT31;56704;54.242;12.442;2022-10-15T01:56:06;12.59;89.65
69503;SHT31;56704;54.242;12.442;2022-10-15T01:58:37;12.53;89.81
69503;SHT31;56704;54.242;12.442;2022-10-15T02:01:04;12.53;89.93
69503;SHT31;56704;54.242;12.442;2022-10-15T02:03:42;12.49;89.95
69503;SHT31;56704;54.242;12.442;2022-10-15T02:06:12;12.48;90.24
69503;SHT31;56704;54.242;12.442;2022-10-15T02:08:44;12.45;90.34
69503;SHT31;56704;54.242;12.442;2022-10-15T02:11:14;12.43;90.35
69503;SHT31;56704;54.242;12.442;2022-10-15T02:13:49;12.36;90.49
69503;SHT31;56704;54.242;12.442;2022-10-15T02:16:21;12.33;90.60
69503;SHT31;56704;54.242;12.442;2022-10-15T02:18:56;12.32;90.67
69503;SHT31;56704;54.242;12.442;2022-10-15T02:21:29;12.30;90.75
69503;SHT31;56704;54.242;12.442;2022-10-15T02:24:03;12.29;90.78
69503;SHT31;56704;54.242;12.442;2022-10-15T02:26:32;12.26;90.85
69503;SHT31;56704;54.242;12.442;2022-10-15T02:29:00;12.26;90.84
69503;SHT31;56704;54.242;12.442;2022-10-15T02:31:29;12.28;90.97
69503;SHT31;56704;54.242;12.442;2022-10-15T02:34:02;12.30;90.88
69503;SHT31;56704;54.242;12.442;2022-10-15T02:36:29;12.26;90.91
69503;SHT31;56704;54.242;12.442;2022-10-15T02:38:56;12.26;90.98
69503;SHT31;56704;54.242;12.442;2022-10-15T02:41:26;12.25;90.96
69503;SHT31;56704;54.242;12.442;2022-10-15T02:43:54;12.26;91.10
69503;SHT31;56704;54.242;12.442;2022-10-15T02:46:20;12.24;91.28
69503;SHT31;56704;54.242;12.442;2022-10-15T02:48:47;12.25;91.23
69503;SHT31;56704;54.242;12.442;2022-10-15T02:51:15;12.22;91.14
69503;SHT31;56704;54.242;12.442;2022-10-15T02:53:41;12.26;91.10
69503;SHT31;56704;54.242;12.442;2022-10-15T02:56:07;12.28;91.11
69503;SHT31;56704;54.242;12.442;2022-10-15T02:58:34;12.29;91.24
69503;SHT31;56704;54.242;12.442;2022-10-15T03:01:00;12.29;91.33
69503;SHT31;56704;54.242;12.442;2022-10-15T03:03:27;12.33;91.30
69503;SHT31;56704;54.242;12.442;2022-10-15T03:05:53;12.33;91.29
69503;SHT31;56704;54.242;12.442;2022-10-15T03:08:21;12.35;91.31
69503;SHT31;56704;54.242;12.442;2022-10-15T03:10:48;12.38;91.28
69503;SHT31;56704;54.242;12.442;2022-10-15T03:13:14;12.38;91.30
69503;SHT31;56704;54.242;12.442;2022-10-15T03:15:41;12.39;91.31
69503;SHT31;56704;54.242;12.442;2022-10-15T03:18:09;12.40;91.22
69503;SHT31;56704;54.242;12.442;2022-10-15T03:20:36;12.40;91.23
69503;SHT31;56704;54.242;12.442;2022-10-15T03:23:02;12.40;91.25
69503;SHT31;56704;54.242;12.442;2022-10-15T03:25:30;12.46;91.25
69503;SHT31;56704;54.242;12.442;2022-10-15T03:27:57;12.45;91.19
69503;SHT31;56704;54.242;12.442;2022-10-15T03:30:23;12.43;91.12
69503;SHT31;56704;54.242;12.442;2022-10-15T03:32:50;12.40;91.21
69503;SHT31;56704;54.242;12.442;2022-10-15T03:35:16;12.42;91.18
69503;SHT31;56704;54.242;12.442;2022-10-15T03:37:43;12.45;91.18
69503;SHT31;56704;54.242;12.442;2022-10-15T03:40:10;12.43;91.19
69503;SHT31;56704;54.242;12.442;2022-10-15T03:42:38;12.45;91.29
69503;SHT31;56704;54.242;12.442;2022-10-15T03:45:05;12.48;91.33
69503;SHT31;56704;54.242;12.442;2022-10-15T03:47:32;12.46;91.44
69503;SHT31;56704;54.242;12.442;2022-10-15T03:49:59;12.42;91.47
69503;SHT31;56704;54.242;12.442;2022-10-15T03:52:25;12.42;91.56
69503;SHT31;56704;54.242;12.442;2022-10-15T03:54:52;12.42;91.56
69503;SHT31;56704;54.242;12.442;2022-10-15T03:57:18;12.40;91.61
69503;SHT31;56704;54.242;12.442;2022-10-15T03:59:49;12.38;91.69
69503;SHT31;56704;54.242;12.442;2022-10-15T04:02:15;12.39;91.67
69503;SHT31;56704;54.242;12.442;2022-10-15T04:04:42;12.38;91.64
69503;SHT31;56704;54.242;12.442;2022-10-15T04:07:08;12.40;91.74
69503;SHT31;56704;54.242;12.442;2022-10-15T04:09:35;12.38;91.76
69503;SHT31;56704;54.242;12.442;2022-10-15T04:12:01;12.40;91.75
69503;SHT31;56704;54.242;12.442;2022-10-15T04:14:28;12.42;91.83
69503;SHT31;56704;54.242;12.442;2022-10-15T04:16:56;12.42;91.83
69503;SHT31;56704;54.242;12.442;2022-10-15T04:19:23;12.45;91.89
69503;SHT31;56704;54.242;12.442;2022-10-15T04:21:49;12.48;91.72
69503;SHT31;56704;54.242;12.442;2022-10-15T04:24:16;12.49;91.68
69503;SHT31;56704;54.242;12.442;2022-10-15T04:26:42;12.48;91.66
69503;SHT31;56704;54.242;12.442;2022-10-15T04:29:09;12.52;91.69
69503;SHT31;56704;54.242;12.442;2022-10-15T04:31:35;12.50;91.70
69503;SHT31;56704;54.242;12.442;2022-10-15T04:34:04;12.50;91.75
69503;SHT31;56704;54.242;12.442;2022-10-15T04:36:30;12.50;91.74
69503;SHT31;56704;54.242;12.442;2022-10-15T04:38:57;12.49;91.85
69503;SHT31;56704;54.242;12.442;2022-10-15T04:41:23;12.49;91.93
69503;SHT31;56704;54.242;12.442;2022-10-15T04:43:50;12.49;92.08
69503;SHT31;56704;54.242;12.442;2022-10-15T04:46:17;12.49;92.09
69503;SHT31;56704;54.242;12.442;2022-10-15T04:48:46;12.48;92.20
69503;SHT31;56704;54.242;12.442;2022-10-15T04:51:16;12.53;92.36
69503;SHT31;56704;54.242;12.442;2022-10-15T04:53:43;12.50;92.22
69503;SHT31;56704;54.242;12.442;2022-10-15T04:56:11;12.52;92.36
69503;SHT31;56704;54.242;12.442;2022-10-15T04:58:40;12.50;92.40
69503;SHT31;56704;54.242;12.442;2022-10-15T05:01:08;12.48;92.47
69503;SHT31;56704;54.242;12.442;2022-10-15T05:03:37;12.46;92.57
69503;SHT31;56704;54.242;12.442;2022-10-15T05:06:06;12.49;92.71
69503;SHT31;56704;54.242;12.442;2022-10-15T05:08:36;12.49;92.75
69503;SHT31;56704;54.242;12.442;2022-10-15T05:11:07;12.50;92.62
69503;SHT31;56704;54.242;12.442;2022-10-15T05:13:35;12.53;92.68
69503;SHT31;56704;54.242;12.442;2022-10-15T05:16:07;12.57;92.93
69503;SHT31;56704;54.242;12.442;2022-10-15T05:18:35;12.57;92.91
69503;SHT31;56704;54.242;12.442;2022-10-15T05:21:01;12.57;92.77
69503;SHT31;56704;54.242;12.442;2022-10-15T05:23:28;12.57;92.83
69503;SHT31;56704;54.242;12.442;2022-10-15T05:25:59;12.61;92.91
69503;SHT31;56704;54.242;12.442;2022-10-15T05:28:26;12.60;92.97
69503;SHT31;56704;54.242;12.442;2022-10-15T05:30:52;12.63;92.91
69503;SHT31;56704;54.242;12.442;2022-10-15T05:33:19;12.64;92.93
69503;SHT31;56704;54.242;12.442;2022-10-15T05:35:46;12.67;92.96
69503;SHT31;56704;54.242;12.442;2022-10-15T05:38:12;12.69;93.05
69503;SHT31;56704;54.242;12.442;2022-10-15T05:40:39;12.67;92.94
69503;SHT31;56704;54.242;12.442;2022-10-15T05:43:06;12.67;92.89
69503;SHT31;56704;54.242;12.442;2022-10-15T05:45:33;12.67;93.01
69503;SHT31;56704;54.242;12.442;2022-10-15T05:47:59;12.69;93.00
69503;SHT31;56704;54.242;12.442;2022-10-15T05:50:26;12.72;93.03
69503;SHT31;56704;54.242;12.442;2022-10-15T05:52:53;12.73;93.11
69503;SHT31;56704;54.242;12.442;2022-10-15T05:55:19;12.73;93.08
69503;SHT31;56704;54.242;12.442;2022-10-15T05:57:46;12.75;93.26
69503;SHT31;56704;54.242;12.442;2022-10-15T06:00:15;12.77;93.36
69503;SHT31;56704;54.242;12.442;2022-10-15T06:02:41;12.79;93.35
69503;SHT31;56704;54.242;12.442;2022-10-15T06:05:08;12.81;93.33
69503;SHT31;56704;54.242;12.442;2022-10-15T06:07:34;12.81;93.36
69503;SHT31;56704;54.242;12.442;2022-10-15T06:10:01;12.84;93.40
69503;SHT31;56704;54.242;12.442;2022-10-15T06:12:28;12.86;93.32
69503;SHT31;56704;54.242;12.442;2022-10-15T06:14:54;12.90;93.37
69503;SHT31;56704;54.242;12.442;2022-10-15T06:17:22;12.89;93.44
69503;SHT31;56704;54.242;12.442;2022-10-15T06:19:49;12.93;93.47
69503;SHT31;56704;54.242;12.442;2022-10-15T06:22:15;12.91;93.55
69503;SHT31;56704;54.242;12.442;2022-10-15T06:24:42;12.94;93.63
69503;SHT31;56704;54.242;12.442;2022-10-15T06:27:08;12.96;93.72
69503;SHT31;56704;54.242;12.442;2022-10-15T06:29:35;12.99;93.58
69503;SHT31;56704;54.242;12.442;2022-10-15T06:32:02;13.00;93.73
69503;SHT31;56704;54.242;12.442;2022-10-15T06:34:30;13.01;93.72
69503;SHT31;56704;54.242;12.442;2022-10-15T06:36:57;13.06;93.69
69503;SHT31;56704;54.242;12.442;2022-10-15T06:39:23;13.08;93.75
69503;SHT31;56704;54.242;12.442;2022-10-15T06:41:50;13.11;93.69
69503;SHT31;56704;54.242;12.442;2022-10-15T06:44:16;13.14;93.68
69503;SHT31;56704;54.242;12.442;2022-10-15T06:46:43;13.18;93.67
69503;SHT31;56704;54.242;12.442;2022-10-15T06:49:09;13.20;93.67
69503;SHT31;56704;54.242;12.442;2022-10-15T06:51:37;13.25;93.58
69503;SHT31;56704;54.242;12.442;2022-10-15T06:54:04;13.30;93.45
69503;SHT31;56704;54.242;12.442;2022-10-15T06:56:30;13.34;93.31
69503;SHT31;56704;54.242;12.442;2022-10-15T06:58:56;13.37;93.40
69503;SHT31;56704;54.242;12.442;2022-10-15T07:01:23;13.42;93.36
69503;SHT31;56704;54.242;12.442;2022-10-15T07:03:49;13.42;93.38
69503;SHT31;56704;54.242;12.442;2022-10-15T07:06:16;13.44;93.36
69503;SHT31;56704;54.242;12.442;2022-10-15T07:08:44;13.48;93.38
69503;SHT31;56704;54.242;12.442;2022-10-15T07:11:11;13.51;93.36
69503;SHT31;56704;54.242;12.442;2022-10-15T07:13:37;13.54;93.32
69503;SHT31;56704;54.242;12.442;2022-10-15T07:16:05;13.58;93.30
69503;SHT31;56704;54.242;12.442;2022-10-15T07:18:31;13.59;93.18
69503;SHT31;56704;54.242;12.442;2022-10-15T07:20:58;13.63;93.08
69503;SHT31;56704;54.242;12.442;2022-10-15T07:23:25;13.66;93.09
69503;SHT31;56704;54.242;12.442;2022-10-15T07:25:52;13.70;92.97
69503;SHT31;56704;54.242;12.442;2022-10-15T07:28:19;13.75;92.84
69503;SHT31;56704;54.242;12.442;2022-10-15T07:30:46;13.78;92.74
69503;SHT31;56704;54.242;12.442;2022-10-15T07:33:14;13.76;92.62
69503;SHT31;56704;54.242;12.442;2022-10-15T07:35:41;13.80;92.65
69503;SHT31;56704;54.242;12.442;2022-10-15T07:38:07;13.86;92.59
69503;SHT31;56704;54.242;12.442;2022-10-15T07:40:34;13.85;92.46
69503;SHT31;56704;54.242;12.442;2022-10-15T07:43:02;13.85;92.44
69503;SHT31;56704;54.242;12.442;2022-10-15T07:45:28;13.83;92.43
69503;SHT31;56704;54.242;12.442;2022-10-15T07:47:55;13.82;92.41
69503;SHT31;56704;54.242;12.442;2022-10-15T07:50:21;13.85;92.33
69503;SHT31;56704;54.242;12.442;2022-10-15T07:52:48;13.86;92.21
69503;SHT31;56704;54.242;12.442;2022-10-15T07:55:15;13.89;92.13
69503;SHT31;56704;54.242;12.442;2022-10-15T07:57:41;13.90;92.10
69503;SHT31;56704;54.242;12.442;2022-10-15T08:00:10;13.91;91.92
69503;SHT31;56704;54.242;12.442;2022-10-15T08:02:37;13.91;91.61
69503;SHT31;56704;54.242;12.442;2022-10-15T08:05:04;13.91;91.61
69503;SHT31;56704;54.242;12.442;2022-10-15T08:07:30;13.98;91.64
69503;SHT31;56704;54.242;12.442;2022-10-15T08:09:57;14.07;91.48
69503;SHT31;56704;54.242;12.442;2022-10-15T08:12:23;14.16;91.30
69503;SHT31;56704;54.242;12.442;2022-10-15T08:14:50;14.20;91.04
69503;SHT31;56704;54.242;12.442;2022-10-15T08:17:18;14.24;90.93
69503;SHT31;56704;54.242;12.442;2022-10-15T08:19:44;14.26;90.74
69503;SHT31;56704;54.242;12.442;2022-10-15T08:22:11;14.31;90.82
69503;SHT31;56704;54.242;12.442;2022-10-15T08:24:37;14.36;90.82
69503;SHT31;56704;54.242;12.442;2022-10-15T08:27:04;14.45;90.55
69503;SHT31;56704;54.242;12.442;2022-10-15T08:29:30;14.51;89.95
69503;SHT31;56704;54.242;12.442;2022-10-15T08:31:57;14.45;89.49
69503;SHT31;56704;54.242;12.442;2022-10-15T08:34:25;14.47;89.60
69503;SHT31;56704;54.242;12.442;2022-10-15T08:36:52;14.47;89.63
69503;SHT31;56704;54.242;12.442;2022-10-15T08:39:18;14.47;89.69
69503;SHT31;56704;54.242;12.442;2022-10-15T08:41:46;14.60;89.73
69503;SHT31;56704;54.242;12.442;2022-10-15T08:44:18;14.69;89.06
69503;SHT31;56704;54.242;12.442;2022-10-15T08:46:48;14.78;88.66
69503;SHT31;56704;54.242;12.442;2022-10-15T08:49:27;14.82;87.94
69503;SHT31;56704;54.242;12.442;2022-10-15T08:52:01;14.88;87.10
69503;SHT31;56704;54.242;12.442;2022-10-15T08:54:29;14.95;87.35
69503;SHT31;56704;54.242;12.442;2022-10-15T08:57:09;14.99;87.19
69503;SHT31;56704;54.242;12.442;2022-10-15T08:59:41;15.02;87.17
69503;SHT31;56704;54.242;12.442;2022-10-15T09:02:15;15.12;86.37
69503;SHT31;56704;54.242;12.442;2022-10-15T09:04:52;15.13;85.48
69503;SHT31;56704;54.242;12.442;2022-10-15T09:07:25;15.13;85.30
69503;SHT31;56704;54.242;12.442;2022-10-15T09:10:05;15.20;84.60
69503;SHT31;56704;54.242;12.442;2022-10-15T09:12:41;15.15;84.21
69503;SHT31;56704;54.242;12.442;2022-10-15T09:15:12;15.12;84.49
69503;SHT31;56704;54.242;12.442;2022-10-15T09:17:40;15.22;84.36
69503;SHT31;56704;54.242;12.442;2022-10-15T09:20:15;15.30;84.10
69503;SHT31;56704;54.242;12.442;2022-10-15T09:22:42;15.42;82.67
69503;SHT31;56704;54.242;12.442;2022-10-15T09:25:13;15.33;82.40
69503;SHT31;56704;54.242;12.442;2022-10-15T09:27:40;15.33;83.50
69503;SHT31;56704;54.242;12.442;2022-10-15T09:30:20;15.35;82.56
69503;SHT31;56704;54.242;12.442;2022-10-15T09:32:54;15.20;82.69
69503;SHT31;56704;54.242;12.442;2022-10-15T09:35:26;15.08;83.45
69503;SHT31;56704;54.242;12.442;2022-10-15T09:38:00;14.98;83.42
69503;SHT31;56704;54.242;12.442;2022-10-15T09:40:43;14.91;83.44
69503;SHT31;56704;54.242;12.442;2022-10-15T09:43:20;14.95;83.73
69503;SHT31;56704;54.242;12.442;2022-10-15T09:45:52;14.92;83.58
69503;SHT31;56704;54.242;12.442;2022-10-15T09:48:18;14.95;83.90
69503;SHT31;56704;54.242;12.442;2022-10-15T09:50:54;14.98;83.52
69503;SHT31;56704;54.242;12.442;2022-10-15T09:53:29;14.95;83.22
69503;SHT31;56704;54.242;12.442;2022-10-15T09:56:07;14.91;83.35
69503;SHT31;56704;54.242;12.442;2022-10-15T09:58:39;14.92;83.51
69503;SHT31;56704;54.242;12.442;2022-10-15T10:01:16;14.87;82.84
69503;SHT31;56704;54.242;12.442;2022-10-15T10:03:43;14.87;82.81
69503;SHT31;56704;54.242;12.442;2022-10-15T10:06:14;14.87;82.51
69503;SHT31;56704;54.242;12.442;2022-10-15T10:08:48;14.88;82.42
69503;SHT31;56704;54.242;12.442;2022-10-15T10:11:15;14.92;81.54
69503;SHT31;56704;54.242;12.442;2022-10-15T10:13:44;14.98;82.24
69503;SHT31;56704;54.242;12.442;2022-10-15T10:16:12;15.06;82.04
69503;SHT31;56704;54.242;12.442;2022-10-15T10:18:39;15.08;81.45
69503;SHT31;56704;54.242;12.442;2022-10-15T10:21:23;15.08;81.33
69503;SHT31;56704;54.242;12.442;2022-10-15T10:23:50;15.09;81.40
69503;SHT31;56704;54.242;12.442;2022-10-15T10:26:17;15.05;80.83
69503;SHT31;56704;54.242;12.442;2022-10-15T10:28:49;15.06;80.70
69503;SHT31;56704;54.242;12.442;2022-10-15T10:31:17;15.12;80.98
69503;SHT31;56704;54.242;12.442;2022-10-15T10:33:52;15.19;80.31
69503;SHT31;56704;54.242;12.442;2022-10-15T10:36:23;15.20;78.41
69503;SHT31;56704;54.242;12.442;2022-10-15T10:38:55;15.12;77.99
69503;SHT31;56704;54.242;12.442;2022-10-15T10:41:46;15.18;78.78
69503;SHT31;56704;54.242;12.442;2022-10-15T10:44:19;15.19;79.37
69503;SHT31;56704;54.242;12.442;2022-10-15T10:47:00;15.19;79.79
69503;SHT31;56704;54.242;12.442;2022-10-15T10:49:30;15.26;79.89
69503;SHT31;56704;54.242;12.442;2022-10-15T10:51:58;15.20;80.20
69503;SHT31;56704;54.242;12.442;2022-10-15T10:54:26;15.23;80.19
69503;SHT31;56704;54.242;12.442;2022-10-15T10:56:55;15.16;80.06
69503;SHT31;56704;54.242;12.442;2022-10-15T10:59:24;15.20;80.26
69503;SHT31;56704;54.242;12.442;2022-10-15T11:01:52;15.38;79.87
69503;SHT31;56704;54.242;12.442;2022-10-15T11:04:23;15.39;79.47
69503;SHT31;56704;54.242;12.442;2022-10-15T11:06:58;15.42;79.23
69503;SHT31;56704;54.242;12.442;2022-10-15T11:09:45;15.49;78.40
69503;SHT31;56704;54.242;12.442;2022-10-15T11:12:29;15.63;78.41
69503;SHT31;56704;54.242;12.442;2022-10-15T11:15:05;15.86;77.90
69503;SHT31;56704;54.242;12.442;2022-10-15T11:17:46;16.05;76.67
69503;SHT31;56704;54.242;12.442;2022-10-15T11:20:18;16.42;74.48
69503;SHT31;56704;54.242;12.442;2022-10-15T11:22:57;16.79;72.99
69503;SHT31;56704;54.242;12.442;2022-10-15T11:25:37;17.10;71.97
69503;SHT31;56704;54.242;12.442;2022-10-15T11:28:26;17.41;70.88
69503;SHT31;56704;54.242;12.442;2022-10-15T11:30:59;17.45;69.63
69503;SHT31;56704;54.242;12.442;2022-10-15T11:33:39;17.11;69.61
69503;SHT31;56704;54.242;12.442;2022-10-15T11:36:27;17.45;69.39
69503;SHT31;56704;54.242;12.442;2022-10-15T11:39:10;17.37;68.83
69503;SHT31;56704;54.242;12.442;2022-10-15T11:41:43;17.59;69.07
69503;SHT31;56704;54.242;12.442;2022-10-15T11:44:27;17.67;69.00
69503;SHT31;56704;54.242;12.442;2022-10-15T11:47:09;17.95;68.05
69503;SHT31;56704;54.242;12.442;2022-10-15T11:49:48;17.82;68.66
69503;SHT31;56704;54.242;12.442;2022-10-15T11:52:36;17.79;68.16
69503;SHT31;56704;54.242;12.442;2022-10-15T11:55:16;18.25;68.38
69503;SHT31;56704;54.242;12.442;2022-10-15T11:57:48;18.43;67.30
69503;SHT31;56704;54.242;12.442;2022-10-15T12:00:29;18.64;66.91
69503;SHT31;56704;54.242;12.442;2022-10-15T12:03:01;18.56;68.27
69503;SHT31;56704;54.242;12.442;2022-10-15T12:05:34;18.13;68.06
69503;SHT31;56704;54.242;12.442;2022-10-15T12:08:01;18.29;66.90
69503;SHT31;56704;54.242;12.442;2022-10-15T12:10:38;18.37;66.20
69503;SHT31;56704;54.242;12.442;2022-10-15T12:13:15;18.47;66.59
69503;SHT31;56704;54.242;12.442;2022-10-15T12:15:51;18.46;65.76
69503;SHT31;56704;54.242;12.442;2022-10-15T12:18:25;18.95;65.59
69503;SHT31;56704;54.242;12.442;2022-10-15T12:20:53;18.68;65.33
69503;SHT31;56704;54.242;12.442;2022-10-15T12:23:24;18.72;65.20
69503;SHT31;56704;54.242;12.442;2022-10-15T12:25:52;18.98;65.59
69503;SHT31;56704;54.242;12.442;2022-10-15T12:28:21;18.94;65.28
69503;SHT31;56704;54.242;12.442;2022-10-15T12:30:54;18.83;65.89
69503;SHT31;56704;54.242;12.442;2022-10-15T12:33:25;18.98;64.83
69503;SHT31;56704;54.242;12.442;2022-10-15T12:35:55;18.92;65.39
69503;SHT31;56704;54.242;12.442;2022-10-15T12:38:26;19.02;64.31
69503;SHT31;56704;54.242;12.442;2022-10-15T12:40:58;19.15;64.45
69503;SHT31;56704;54.242;12.442;2022-10-15T12:43:25;19.25;65.79
69503;SHT31;56704;54.242;12.442;2022-10-15T12:45:54;19.19;64.23
69503;SHT31;56704;54.242;12.442;2022-10-15T12:48:30;19.19;64.90
69503;SHT31;56704;54.242;12.442;2022-10-15T12:54:35;19.15;64.83
69503;SHT31;56704;54.242;12.442;2022-10-15T13:00:30;18.89;65.64
69503;SHT31;56704;54.242;12.442;2022-10-15T13:03:08;18.60;66.16
69503;SHT31;56704;54.242;12.442;2022-10-15T13:05:36;18.50;66.90
69503;SHT31;56704;54.242;12.442;2022-10-15T13:08:05;18.78;67.15
69503;SHT31;56704;54.242;12.442;2022-10-15T13:10:38;18.81;66.90
69503;SHT31;56704;54.242;12.442;2022-10-15T13:13:13;18.92;65.98
69503;SHT31;56704;54.242;12.442;2022-10-15T13:15:41;18.69;65.87
69503;SHT31;56704;54.242;12.442;2022-10-15T13:18:10;18.79;66.14
69503;SHT31;56704;54.242;12.442;2022-10-15T13:20:39;18.77;66.53
69503;SHT31;56704;54.242;12.442;2022-10-15T13:23:09;18.54;67.15
69503;SHT31;56704;54.242;12.442;2022-10-15T13:25:36;18.74;66.12
69503;SHT31;56704;54.242;12.442;2022-10-15T13:28:31;19.02;66.32
69503;SHT31;56704;54.242;12.442;2022-10-15T13:30:59;19.04;65.82
69503;SHT31;56704;54.242;12.442;2022-10-15T13:33:25;18.78;65.13
69503;SHT31;56704;54.242;12.442;2022-10-15T13:35:52;18.83;65.95
69503;SHT31;56704;54.242;12.442;2022-10-15T13:38:20;18.26;66.99
69503;SHT31;56704;54.242;12.442;2022-10-15T13:40:48;18.71;67.23
69503;SHT31;56704;54.242;12.442;2022-10-15T13:43:17;18.79;67.00
69503;SHT31;56704;54.242;12.442;2022-10-15T13:45:48;19.16;65.24
69503;SHT31;56704;54.242;12.442;2022-10-15T13:48:19;19.23;65.08
69503;SHT31;56704;54.242;12.442;2022-10-15T13:50:48;19.20;64.59
69503;SHT31;56704;54.242;12.442;2022-10-15T13:53:21;19.12;64.42
69503;SHT31;56704;54.242;12.442;2022-10-15T13:55:50;19.12;65.35
69503;SHT31;56704;54.242;12.442;2022-10-15T13:58:20;19.29;64.76
69503;SHT31;56704;54.242;12.442;2022-10-15T14:00:55;19.46;63.79
69503;SHT31;56704;54.242;12.442;2022-10-15T14:03:23;19.02;65.09
69503;SHT31;56704;54.242;12.442;2022-10-15T14:05:52;19.18;65.96
69503;SHT31;56704;54.242;12.442;2022-10-15T14:08:24;19.07;64.47
69503;SHT31;56704;54.242;12.442;2022-10-15T14:10:52;19.20;65.12
69503;SHT31;56704;54.242;12.442;2022-10-15T14:13:20;18.78;64.73
69503;SHT31;56704;54.242;12.442;2022-10-15T14:15:59;19.16;65.64
69503;SHT31;56704;54.242;12.442;2022-10-15T14:18:29;19.23;65.48
69503;SHT31;56704;54.242;12.442;2022-10-15T14:20:57;19.18;66.62
69503;SHT31;56704;54.242;12.442;2022-10-15T14:23:24;18.87;65.53
69503;SHT31;56704;54.242;12.442;2022-10-15T14:25:53;19.12;65.27
69503;SHT31;56704;54.242;12.442;2022-10-15T14:28:21;19.22;64.19
69503;SHT31;56704;54.242;12.442;2022-10-15T14:30:49;19.36;65.34
69503;SHT31;56704;54.242;12.442;2022-10-15T14:33:47;19.28;64.24
69503;SHT31;56704;54.242;12.442;2022-10-15T14:36:28;19.23;63.42
69503;SHT31;56704;54.242;12.442;2022-10-15T14:39:24;19.23;64.22
69503;SHT31;56704;54.242;12.442;2022-10-15T14:41:55;19.22;64.74
69503;SHT31;56704;54.242;12.442;2022-10-15T14:44:22;18.85;64.75
69503;SHT31;56704;54.242;12.442;2022-10-15T14:46:50;18.58;66.19
69503;SHT31;56704;54.242;12.442;2022-10-15T14:49:22;18.60;65.98
69503;SHT31;56704;54.242;12.442;2022-10-15T14:51:54;18.63;65.70
69503;SHT31;56704;54.242;12.442;2022-10-15T14:54:24;18.87;66.07
69503;SHT31;56704;54.242;12.442;2022-10-15T14:56:53;18.95;65.73
69503;SHT31;56704;54.242;12.442;2022-10-15T14:59:23;18.71;66.05
69503;SHT31;56704;54.242;12.442;2022-10-15T15:01:54;18.33;66.14
69503;SHT31;56704;54.242;12.442;2022-10-15T15:04:35;18.06;66.31
69503;SHT31;56704;54.242;12.442;2022-10-15T15:07:14;18.03;66.51
69503;SHT31;56704;54.242;12.442;2022-10-15T15:09:41;17.85;66.79
69503;SHT31;56704;54.242;12.442;2022-10-15T15:12:15;17.52;67.61
69503;SHT31;56704;54.242;12.442;2022-10-15T15:14:43;17.41;68.17
69503;SHT31;56704;54.242;12.442;2022-10-15T15:17:13;17.30;68.91
69503;SHT31;56704;54.242;12.442;2022-10-15T15:19:41;17.14;69.04
69503;SHT31;56704;54.242;12.442;2022-10-15T15:22:09;17.06;69.22
69503;SHT31;56704;54.242;12.442;2022-10-15T15:24:36;16.99;69.91
69503;SHT31;56704;54.242;12.442;2022-10-15T15:27:03;16.91;69.94
69503;SHT31;56704;54.242;12.442;2022-10-15T15:29:29;16.86;70.26
69503;SHT31;56704;54.242;12.442;2022-10-15T15:31:56;16.80;71.13
69503;SHT31;56704;54.242;12.442;2022-10-15T15:34:22;16.69;71.70
69503;SHT31;56704;54.242;12.442;2022-10-15T15:36:50;16.62;71.83
69503;SHT31;56704;54.242;12.442;2022-10-15T15:39:17;16.51;72.26
69503;SHT31;56704;54.242;12.442;2022-10-15T15:41:43;16.44;72.99
69503;SHT31;56704;54.242;12.442;2022-10-15T15:44:10;16.24;73.41